Pagina principală
METAR-TAF:

METAR-TAF

Aeroporturi :

Butte, Montana, Statele Unite ale Americii

Latitudine: 45-57-17N, longitudine: 112-29-51W, elevație: 1690 m

Observații meteo curente

Raportul a fost făcut în urmă cu 47 de minute, la 15:53 UTC
Vânt calm
Temperatură -1°C
Umiditate 50%
Presiune 1025 hPa
Vizibilitate: 16.1 km
Cer senin

METAR: KBTM 201553Z AUTO 00000KT 10SM CLR M01/M10 A3026 RMK AO2 SLP277 T10061100

Ora: 10:40 (16:40 UTC)

Prognoză

Raportul a fost făcut în urmă cu 5 ore și 17 de minute, la 11:23 UTC
Prognoză valabilă de la 20 ora 12 UTC la 21 ora 12 UTC
Vânt 5 kt de la Sud-est
Vizibilitate: 10 km
Cer senin

TAF: KBTM 201123Z 2012/2112 14005KT P6SM SKC

Observații și prognoze meteo pentru peste 4.000 de aeroporturi (rapoarte METAR și TAF).

Stațiile disponibile sunt reprezentate pe hartă prin puncte galbene și roșii.

Țineți indicatorul mouse-ului pe punctul dorit pentru a vedea denumirea stației.

Apoi, faceți clic pentru a vedea observațiile și prognozele meteorologice.

Pentru a schimba harta: Pentru mărire, faceți clic pe butoanele verzi cu cruce neagră; pentru micșorare, pe butonul verde cu o liniuță; pentru hărți învecinate, pe săgețile verzi.


METAR-TAF: